• Join FlightAware (Why Join?)
  • Login
  • US Flag GB Flag 
03:09 EDT


 

Airport Tracker/Info


-or-


 

Live Flight TrackerFlight Track Log ✈ CTL13 ✈ 05-Jul-2013 ✈ KBKL - KEYE

Flight Track Log - Related Links

Times and Time Zones

All times are in EDT time to prevent confusion due to time zone crossing. See the CTL13 flight status page for this flight to view local times or setup timezone preferences in your user account.

Time Position Orientation Groundspeed Altitude Reporting Facility
EDT Latitude Longitude Course Direction KTS MPH feet Rate Location/Type
18:41 41.5083 -81.7061 326° Northwest 132 152 1,000  Level Cleveland Center
18:41 41.5269 -81.7231 326° Northwest 130 150 1,500 1,200 Climbing Cleveland Center
18:43 41.5603 -81.7347 345° North 121 139 3,000 1,200 Climbing Cleveland Center
18:44 41.5661 -81.7653 284° West 100 115 4,100 840 Climbing Cleveland Center
18:45 41.5492 -81.8039 240° Southwest 126 145 4,900 840 Climbing Cleveland Center
18:46 41.5319 -81.8508 244° Southwest 122 140 5,800 840 Climbing Cleveland Center
18:47 41.5167 -81.8919 244° Southwest 120 138 6,700 840 Climbing Cleveland Center
18:48 41.4975 -81.9361 240° Southwest 120 138 7,700 600 Climbing Cleveland Center
18:49 41.4803 -81.9828 244° Southwest 140 161 8,100 180 Climbing Cleveland Center
18:50 41.4608 -82.0294 241° Southwest 163 188 8,100  Level Cleveland Center
18:51 41.4436 -82.0761 244° Southwest 161 185 8,100 -60 Level Cleveland Center
18:52 41.4200 -82.1339 241° Southwest 162 186 8,000 -60 Descending Cleveland Center
18:53 41.4067 -82.1861 251° West 162 186 8,000  Level Cleveland Center
18:54 41.3997 -82.2439 261° West 160 184 8,000  Level Cleveland Center
18:55 41.3714 -82.3181 243° Southwest 159 183 8,000  Level Indianapolis Center
18:56 41.3508 -82.3703 242° Southwest 158 182 8,000  Level Indianapolis Center
18:57 41.3267 -82.4311 242° Southwest 159 183 8,000  Level Indianapolis Center
18:58 41.3072 -82.4831 244° Southwest 157 181 8,000  Level Indianapolis Center
18:59 41.2864 -82.5350 242° Southwest 158 182 8,000  Level Indianapolis Center
19:01 41.2650 -82.5864 241° Southwest 157 181 8,000  Level Indianapolis Center
19:02 41.2458 -82.6381 244° Southwest 156 180 8,000  Level Indianapolis Center
19:03 41.2256 -82.6906 243° Southwest 158 182 8,000  Level Indianapolis Center
19:04 41.2044 -82.7425 242° Southwest 159 183 8,000  Level Indianapolis Center
19:05 41.1842 -82.7947 243° Southwest 159 183 8,000  Level Indianapolis Center
19:06 41.1617 -82.8461 240° Southwest 160 184 8,100  Climbing Indianapolis Center
19:07 41.1414 -82.8983 243° Southwest 159 183 8,100  Level Indianapolis Center
19:08 41.1203 -82.9489 241° Southwest 157 181 8,100  Level Indianapolis Center
19:09 41.0994 -83.0003 242° Southwest 158 182 8,100  Level Indianapolis Center
19:10 41.0794 -83.0522 243° Southwest 157 181 8,100  Level Indianapolis Center
19:11 41.0544 -83.1128 241° Southwest 159 183 8,100  Level Indianapolis Center
19:12 41.0342 -83.1642 242° Southwest 158 182 8,100  Level Indianapolis Center
19:13 41.0131 -83.2161 242° Southwest 159 183 8,100  Level Indianapolis Center
19:14 40.9919 -83.2678 242° Southwest 159 183 8,100  Level Indianapolis Center
19:15 40.9719 -83.3206 243° Southwest 159 183 8,100  Level Indianapolis Center
19:16 40.9506 -83.3706 240° Southwest 157 181 8,100  Level Indianapolis Center
19:17 40.9300 -83.4228 242° Southwest 159 183 8,100  Level Indianapolis Center
19:18 40.9081 -83.4733 240° Southwest 157 181 8,100  Level Indianapolis Center
19:19 40.8872 -83.5239 241° Southwest 159 183 8,100  Level Indianapolis Center
19:20 40.8661 -83.5778 243° Southwest 162 186 8,100  Level Indianapolis Center
19:21 40.8450 -83.6292 242° Southwest 161 185 8,100  Level Indianapolis Center
19:22 40.8231 -83.6803 240° Southwest 159 183 8,100  Level Indianapolis Center
19:23 40.8036 -83.7325 244° Southwest 159 183 8,100  Level Indianapolis Center
19:24 40.7781 -83.7936 241° Southwest 162 186 8,100  Level Indianapolis Center
19:25 40.7583 -83.8453 243° Southwest 159 183 8,100  Level Indianapolis Center
19:26 40.7367 -83.8961 241° Southwest 158 182 8,100  Level Indianapolis Center
19:27 40.7144 -83.9467 240° Southwest 159 183 8,100  Level Indianapolis Center
19:28 40.6917 -83.9956 238° Southwest 158 182 8,100  Level Indianapolis Center
19:29 40.6669 -84.0444 236° Southwest 159 183 8,100  Level Indianapolis Center
19:30 40.6408 -84.0925 234° Southwest 160 184 8,100  Level Indianapolis Center
19:31 40.6158 -84.1406 236° Southwest 159 183 8,100 -60 Level Indianapolis Center
19:32 40.5903 -84.1881 235° Southwest 159 183 8,000 -60 Descending Indianapolis Center
19:33 40.5656 -84.2372 237° Southwest 159 183 8,000  Level Indianapolis Center
19:34 40.5403 -84.2853 235° Southwest 159 183 8,000  Level Indianapolis Center
19:35 40.5075 -84.3467 235° Southwest 157 181 8,000  Level Indianapolis Center
19:36 40.4897 -84.3808 236° Southwest 158 182 8,000  Level Indianapolis Center
19:37 40.4636 -84.4286 234° Southwest 160 184 8,000  Level Indianapolis Center
19:38 40.4386 -84.4764 236° Southwest 159 183 8,000  Level Indianapolis Center
19:39 40.4131 -84.5231 234° Southwest 157 181 8,100  Climbing Indianapolis Center
19:40 40.3836 -84.5789 235° Southwest 158 182 8,000 -60 Descending Indianapolis Center
19:41 40.3586 -84.6272 236° Southwest 158 182 8,000  Level Indianapolis Center
19:42 40.3328 -84.6753 235° Southwest 159 183 8,000  Level Indianapolis Center
19:44 40.3039 -84.7303 235° Southwest 157 181 8,000  Level Indianapolis Center
19:44 40.2825 -84.7689 234° Southwest 158 182 8,000  Level Indianapolis Center
19:45 40.2578 -84.8147 235° Southwest 155 178 8,000  Level Indianapolis Center
19:46 40.2317 -84.8625 234° Southwest 159 183 8,000  Level Indianapolis Center
19:47 40.2044 -84.9114 234° Southwest 156 180 8,100  Climbing Indianapolis Center
19:48 40.1803 -84.9572 235° Southwest 155 178 8,000 -60 Descending Indianapolis Center
19:50 40.1544 -85.0050 235° Southwest 159 183 8,000  Level Indianapolis Center
19:51 40.1303 -85.0514 236° Southwest 156 180 8,000  Level Indianapolis Center
19:52 40.1033 -85.0983 233° Southwest 160 184 8,000  Level Indianapolis Center
19:53 40.0783 -85.1442 235° Southwest 157 181 8,000  Level Indianapolis Center
19:54 40.0539 -85.1897 235° Southwest 155 178 8,100 -180 Climbing Indianapolis Center
19:55 40.0436 -85.2481 257° West 162 186 7,700 -420 Descending Indianapolis Center
19:56 40.0333 -85.3094 258° West 171 197 7,300 -540 Descending Indianapolis Center
19:57 40.0206 -85.3725 255° West 179 206 6,700 -660 Descending Indianapolis Center
19:58 40.0053 -85.4483 255° West 182 209 6,000 -600 Descending Indianapolis Center
19:59 39.9925 -85.5119 255° West 182 209 5,500 -540 Descending Indianapolis Center
20:00 39.9806 -85.5744 256° West 180 207 5,000 -540 Descending Indianapolis Center
20:01 39.9675 -85.6381 255° West 181 208 4,500 -480 Descending Indianapolis Center
20:02 39.9547 -85.7019 255° West 182 209 4,100 -300 Descending Indianapolis Center
20:03 39.9419 -85.7644 255° West 181 208 4,000 -60 Descending Indianapolis Center
20:04 39.9300 -85.8231 255° West 176 203 4,000 -180 Level Indianapolis Center
20:05 39.9203 -85.8833 258° West 172 198 3,700 -360 Descending Indianapolis Center
20:06 39.9175 -85.9503 267° West 178 205 3,300 -480 Descending Indianapolis Center
20:07 39.9150 -86.0292 268° West 182 209 2,800 -420 Descending Indianapolis Center
20:08 39.8961 -86.0881 247° West 180 207 2,500 -240 Descending Indianapolis Center
20:09 39.8792 -86.1411 247° West 177 204 2,400 -120 Descending Indianapolis Center